createdAt,value
2023-02-13T00:04:51.544Z,21.52
2023-02-13T00:09:55.733Z,21.51
2023-02-13T00:14:59.147Z,21.52
2023-02-13T00:20:02.019Z,21.52
2023-02-13T00:25:07.075Z,21.52
2023-02-13T00:30:10.881Z,21.50
2023-02-13T00:35:13.921Z,21.50
2023-02-13T00:40:18.124Z,21.50
2023-02-13T00:45:20.951Z,21.49
2023-02-13T00:50:23.703Z,21.50
2023-02-13T00:55:27.851Z,21.51
2023-02-13T01:00:30.680Z,21.53
2023-02-13T01:05:33.629Z,21.51
2023-02-13T01:10:38.236Z,21.51
2023-02-13T01:15:41.572Z,21.49
2023-02-13T01:20:44.842Z,21.50
2023-02-13T01:25:51.535Z,21.50
2023-02-13T01:30:55.589Z,21.48
2023-02-13T01:36:00.290Z,21.49
2023-02-13T01:41:05.275Z,21.49
2023-02-13T01:46:08.507Z,21.49
2023-02-13T01:51:13.042Z,21.48
2023-02-13T01:56:20.702Z,21.47
2023-02-13T02:01:23.892Z,21.47
2023-02-13T02:06:29.223Z,21.45
2023-02-13T02:11:37.132Z,21.47
2023-02-13T02:16:41.101Z,21.47
2023-02-13T02:22:00.763Z,21.48
2023-02-13T02:27:33.438Z,21.46
2023-02-13T02:32:46.122Z,21.46
2023-02-13T02:37:57.050Z,21.45
2023-02-13T02:43:09.978Z,21.46
2023-02-13T02:48:36.789Z,21.43
2023-02-13T02:53:40.972Z,21.43
2023-02-13T02:59:03.832Z,21.44
2023-02-13T03:04:34.044Z,21.44
2023-02-13T03:09:56.051Z,21.44
2023-02-13T03:14:58.910Z,21.43
2023-02-13T03:20:28.730Z,21.41
2023-02-13T03:25:35.073Z,21.42
2023-02-13T03:30:44.761Z,21.40
2023-02-13T03:36:13.319Z,21.42
2023-02-13T03:41:20.886Z,21.39
2023-02-13T03:46:23.728Z,21.39
2023-02-13T03:51:29.505Z,21.37
2023-02-13T03:56:50.029Z,21.41
2023-02-13T04:01:58.416Z,21.38
2023-02-13T04:07:03.652Z,21.41
2023-02-13T04:12:10.260Z,21.37
2023-02-13T04:17:15.090Z,21.39
2023-02-13T04:22:19.492Z,21.41
2023-02-13T04:27:22.398Z,21.36
2023-02-13T04:32:25.164Z,21.39
2023-02-13T04:37:29.344Z,21.39
2023-02-13T04:42:32.221Z,21.36
2023-02-13T04:47:35.112Z,21.33
2023-02-13T04:52:39.426Z,21.32
2023-02-13T04:57:42.197Z,21.28
2023-02-13T05:02:45.001Z,21.24
2023-02-13T05:07:49.116Z,21.20
2023-02-13T05:12:52.022Z,21.14
2023-02-13T05:17:54.794Z,21.12
2023-02-13T05:23:17.506Z,21.02
2023-02-13T05:28:37.714Z,20.97
2023-02-13T05:33:40.693Z,20.92
2023-02-13T05:38:44.875Z,20.89
2023-02-13T05:43:47.799Z,20.86
2023-02-13T05:48:50.698Z,20.80
2023-02-13T05:53:54.788Z,20.78
2023-02-13T05:58:57.605Z,20.76
2023-02-13T06:04:03.423Z,20.72
2023-02-13T06:09:08.377Z,20.68
2023-02-13T06:14:12.052Z,20.66
2023-02-13T06:19:14.866Z,20.65
2023-02-13T06:24:19.100Z,20.62
2023-02-13T06:29:22.021Z,20.59
2023-02-13T06:34:24.810Z,20.54
2023-02-13T06:39:28.965Z,20.51
2023-02-13T06:44:31.798Z,20.51
2023-02-13T06:49:34.599Z,20.44
2023-02-13T06:54:47.359Z,20.42
2023-02-13T06:59:50.671Z,20.38
2023-02-13T07:04:53.555Z,20.37
2023-02-13T07:09:57.650Z,20.37
2023-02-13T07:15:00.661Z,20.34
2023-02-13T07:20:04.478Z,20.25
2023-02-13T07:25:09.383Z,20.19
2023-02-13T07:30:13.026Z,20.19
2023-02-13T07:35:15.882Z,20.14
2023-02-13T07:40:20.304Z,20.11
2023-02-13T07:45:23.161Z,20.11
2023-02-13T07:50:26.072Z,20.10
2023-02-13T07:55:30.451Z,20.08
2023-02-13T08:00:33.292Z,20.07
2023-02-13T08:05:36.009Z,20.05
2023-02-13T08:10:58.064Z,19.97
2023-02-13T08:16:00.909Z,19.93
2023-02-13T08:21:03.810Z,19.91
2023-02-13T08:26:07.955Z,19.92
2023-02-13T08:31:12.150Z,19.91
2023-02-13T08:36:14.955Z,19.88
2023-02-13T08:41:20.856Z,19.83
2023-02-13T08:46:23.816Z,19.79
2023-02-13T08:51:26.684Z,19.75
2023-02-13T08:56:30.856Z,19.73
2023-02-13T09:01:33.730Z,19.70
2023-02-13T09:06:36.543Z,19.68
2023-02-13T09:11:40.785Z,19.09
2023-02-13T09:16:43.602Z,16.40
2023-02-13T09:21:46.444Z,15.62
2023-02-13T09:26:50.578Z,16.26
2023-02-13T09:31:53.700Z,17.32
2023-02-13T09:36:56.466Z,17.90
2023-02-13T09:42:00.728Z,18.27
2023-02-13T09:47:06.466Z,18.70
2023-02-13T09:52:09.261Z,18.92
2023-02-13T09:57:17.871Z,19.06
2023-02-13T10:02:36.710Z,19.27
2023-02-13T10:07:42.498Z,19.44
2023-02-13T10:13:04.976Z,19.61
2023-02-13T10:18:11.550Z,19.71
2023-02-13T10:23:19.685Z,19.82
2023-02-13T10:28:30.104Z,19.80
2023-02-13T10:33:35.146Z,19.87
2023-02-13T10:38:51.308Z,19.92
2023-02-13T10:44:03.362Z,19.94
2023-02-13T10:49:21.935Z,19.99
2023-02-13T10:54:35.417Z,20.02
2023-02-13T10:59:55.142Z,20.03
2023-02-13T11:05:00.321Z,20.09
2023-02-13T11:10:07.123Z,20.10
2023-02-13T11:15:26.712Z,20.11
2023-02-13T11:20:32.848Z,20.14
2023-02-13T11:25:35.860Z,20.16
2023-02-13T11:30:40.154Z,20.21
2023-02-13T11:35:42.957Z,20.25
2023-02-13T11:40:47.615Z,20.25
2023-02-13T11:46:06.679Z,20.23
2023-02-13T11:51:09.446Z,20.22
2023-02-13T11:56:13.491Z,20.20
2023-02-13T12:01:28.598Z,20.18
2023-02-13T12:06:31.601Z,20.16
2023-02-13T12:11:38.017Z,20.14
2023-02-13T12:16:43.474Z,20.14
2023-02-13T12:21:56.959Z,20.14
2023-02-13T12:27:01.180Z,19.50
2023-02-13T12:32:11.935Z,17.33
2023-02-13T12:37:20.321Z,16.12
2023-02-13T12:42:32.641Z,17.20
2023-02-13T12:47:38.557Z,18.02
2023-02-13T12:52:47.078Z,18.62
2023-02-13T12:57:57.488Z,18.91
2023-02-13T13:03:19.014Z,19.17
2023-02-13T13:08:34.914Z,19.35
2023-02-13T13:13:44.061Z,19.51
2023-02-13T13:18:54.208Z,19.64
2023-02-13T13:24:00.990Z,19.73
2023-02-13T13:29:06.444Z,19.81
2023-02-13T13:34:23.710Z,19.84
2023-02-13T13:39:33.718Z,19.80
2023-02-13T13:44:44.795Z,19.79
2023-02-13T13:49:52.714Z,19.78
2023-02-13T13:54:56.849Z,19.78
2023-02-13T14:00:18.406Z,19.78
2023-02-13T14:05:27.574Z,19.89
2023-02-13T14:11:00.249Z,19.92
2023-02-13T14:16:03.591Z,20.00
2023-02-13T14:21:07.770Z,20.03
2023-02-13T14:26:19.042Z,20.05
2023-02-13T14:31:23.605Z,20.01
2023-02-13T14:36:32.239Z,20.01
2023-02-13T14:41:58.738Z,20.17
2023-02-13T14:47:04.225Z,20.13
2023-02-13T14:52:10.671Z,20.08
2023-02-13T14:57:16.273Z,20.09
2023-02-13T15:02:22.777Z,20.03
2023-02-13T15:07:27.893Z,20.03
2023-02-13T15:12:31.891Z,20.05
2023-02-13T15:17:38.512Z,20.09
2023-02-13T15:22:43.510Z,20.72
2023-02-13T15:27:46.475Z,20.28
2023-02-13T15:32:55.132Z,20.30
2023-02-13T15:37:59.304Z,20.34
2023-02-13T15:43:02.298Z,20.39
2023-02-13T15:48:05.278Z,20.45
2023-02-13T15:53:13.663Z,20.50
2023-02-13T15:58:16.553Z,20.55
2023-02-13T16:03:19.535Z,20.61
2023-02-13T16:08:31.777Z,20.65
2023-02-13T16:13:34.587Z,20.69
2023-02-13T16:18:37.390Z,20.76
2023-02-13T16:23:41.831Z,20.78
2023-02-13T16:28:46.946Z,20.81
2023-02-13T16:33:49.819Z,20.89
2023-02-13T16:38:54.194Z,20.95
2023-02-13T16:43:57.438Z,20.99
2023-02-13T16:49:06.799Z,21.03
2023-02-13T16:54:19.157Z,21.09
2023-02-13T16:59:33.337Z,21.14
2023-02-13T17:04:39.254Z,21.19
2023-02-13T17:09:43.396Z,21.22
2023-02-13T17:14:46.819Z,21.28
2023-02-13T17:19:49.724Z,21.17
2023-02-13T17:24:53.985Z,21.15
2023-02-13T17:29:56.852Z,21.30
2023-02-13T17:34:59.606Z,21.32
2023-02-13T17:40:03.755Z,21.31
2023-02-13T17:45:06.971Z,21.34
2023-02-13T17:50:10.985Z,21.33
2023-02-13T17:55:18.372Z,21.33
2023-02-13T18:00:21.681Z,21.34
2023-02-13T18:05:24.556Z,21.33
2023-02-13T18:10:29.529Z,21.34
2023-02-13T18:15:32.783Z,21.31
2023-02-13T18:20:35.728Z,21.32
2023-02-13T18:25:39.820Z,21.33
2023-02-13T18:30:43.035Z,21.36
2023-02-13T18:35:45.961Z,21.36
2023-02-13T18:40:50.153Z,21.32
2023-02-13T18:45:53.140Z,21.33
2023-02-13T18:50:56.160Z,21.36
2023-02-13T18:56:04.319Z,21.34
2023-02-13T19:01:08.637Z,21.35
2023-02-13T19:06:12.398Z,21.34
2023-02-13T19:11:17.374Z,21.33
2023-02-13T19:16:20.369Z,21.31
2023-02-13T19:21:24.112Z,21.39
2023-02-13T19:26:28.266Z,21.44
2023-02-13T19:31:32.954Z,21.42
2023-02-13T19:36:35.856Z,21.46
2023-02-13T19:41:40.849Z,21.45
2023-02-13T19:46:43.719Z,21.45
2023-02-13T19:51:47.271Z,21.48
2023-02-13T19:56:51.452Z,21.47
2023-02-13T20:01:54.428Z,21.48
2023-02-13T20:06:58.328Z,21.51
2023-02-13T20:12:02.522Z,21.50
2023-02-13T20:17:06.209Z,21.50
2023-02-13T20:22:08.937Z,21.52
2023-02-13T20:27:13.253Z,21.53
2023-02-13T20:32:16.329Z,21.52
2023-02-13T20:37:19.219Z,21.54
2023-02-13T20:42:23.463Z,21.54
2023-02-13T20:47:26.520Z,21.54
2023-02-13T20:52:29.298Z,21.54
2023-02-13T20:57:35.325Z,21.55
2023-02-13T21:02:38.296Z,21.54
2023-02-13T21:07:43.536Z,21.52
2023-02-13T21:12:47.747Z,21.53
2023-02-13T21:17:50.710Z,21.54
2023-02-13T21:22:53.641Z,21.52
2023-02-13T21:27:57.793Z,21.54
2023-02-13T21:33:00.576Z,21.54
2023-02-13T21:38:03.439Z,21.54
2023-02-13T21:43:07.630Z,21.54
2023-02-13T21:48:10.594Z,21.54
2023-02-13T21:53:13.587Z,21.55
2023-02-13T21:58:17.788Z,21.54
2023-02-13T22:03:20.745Z,21.56
2023-02-13T22:08:23.564Z,21.54
2023-02-13T22:13:27.816Z,21.53
2023-02-13T22:18:31.685Z,21.51
2023-02-13T22:23:36.655Z,21.45
2023-02-13T22:28:40.995Z,21.42
2023-02-13T22:33:47.538Z,21.43
2023-02-13T22:38:52.949Z,21.41
2023-02-13T22:43:57.251Z,21.36
2023-02-13T22:49:00.043Z,21.35
2023-02-13T22:54:02.981Z,21.34
2023-02-13T22:59:07.239Z,21.35
2023-02-13T23:04:10.103Z,21.33
2023-02-13T23:09:12.938Z,21.32
2023-02-13T23:14:17.068Z,21.34
2023-02-13T23:19:20.452Z,21.35
2023-02-13T23:24:23.344Z,21.32
2023-02-13T23:29:27.604Z,21.31
2023-02-13T23:34:30.410Z,21.32
2023-02-13T23:39:33.177Z,21.31
2023-02-13T23:44:37.430Z,21.31
2023-02-13T23:49:40.251Z,21.29
2023-02-13T23:54:43.495Z,21.29
2023-02-13T23:59:47.601Z,21.28
